sensor_id;sensor_type;location;lat;lon;timestamp;P1;durP1;ratioP1;P2;durP2;ratioP2
10489;SDS011;35569;48.402;10.670;2022-08-11T00:00:21;3.90;;;1.90;;
10489;SDS011;35569;48.402;10.670;2022-08-11T00:01:05;6.53;;;1.80;;
10489;SDS011;35569;48.402;10.670;2022-08-11T00:01:45;3.20;;;1.83;;
10489;SDS011;35569;48.402;10.670;2022-08-11T00:02:29;1.70;;;1.70;;
10489;SDS011;35569;48.402;10.670;2022-08-11T00:03:05;1.77;;;1.67;;
10489;SDS011;35569;48.402;10.670;2022-08-11T00:03:42;1.77;;;1.57;;
10489;SDS011;35569;48.402;10.670;2022-08-11T00:04:20;3.53;;;1.40;;
10489;SDS011;35569;48.402;10.670;2022-08-11T00:04:54;1.77;;;1.77;;
10489;SDS011;35569;48.402;10.670;2022-08-11T00:05:27;1.83;;;1.73;;
10489;SDS011;35569;48.402;10.670;2022-08-11T00:06:03;2.00;;;1.80;;
10489;SDS011;35569;48.402;10.670;2022-08-11T00:06:35;3.13;;;1.67;;
10489;SDS011;35569;48.402;10.670;2022-08-11T00:07:09;1.60;;;1.60;;
10489;SDS011;35569;48.402;10.670;2022-08-11T00:07:45;1.90;;;1.90;;
10489;SDS011;35569;48.402;10.670;2022-08-11T00:08:20;2.00;;;1.90;;
10489;SDS011;35569;48.402;10.670;2022-08-11T00:08:54;1.67;;;1.57;;
10489;SDS011;35569;48.402;10.670;2022-08-11T00:09:31;1.90;;;1.80;;
10489;SDS011;35569;48.402;10.670;2022-08-11T00:10:11;1.80;;;1.80;;
10489;SDS011;35569;48.402;10.670;2022-08-11T00:10:44;1.50;;;1.40;;
10489;SDS011;35569;48.402;10.670;2022-08-11T00:11:35;1.67;;;1.67;;
10489;SDS011;35569;48.402;10.670;2022-08-11T00:12:11;2.30;;;2.20;;
10489;SDS011;35569;48.402;10.670;2022-08-11T00:12:52;2.03;;;1.93;;
10489;SDS011;35569;48.402;10.670;2022-08-11T00:13:30;2.23;;;1.73;;
10489;SDS011;35569;48.402;10.670;2022-08-11T00:14:04;1.80;;;1.70;;
10489;SDS011;35569;48.402;10.670;2022-08-11T00:14:54;1.87;;;1.77;;
10489;SDS011;35569;48.402;10.670;2022-08-11T00:15:37;1.60;;;1.50;;
10489;SDS011;35569;48.402;10.670;2022-08-11T00:16:15;1.90;;;1.80;;
10489;SDS011;35569;48.402;10.670;2022-08-11T00:16:53;1.90;;;1.90;;
10489;SDS011;35569;48.402;10.670;2022-08-11T00:17:26;1.63;;;1.53;;
10489;SDS011;35569;48.402;10.670;2022-08-11T00:18:02;1.53;;;1.47;;
10489;SDS011;35569;48.402;10.670;2022-08-11T00:18:38;2.10;;;2.00;;
10489;SDS011;35569;48.402;10.670;2022-08-11T00:19:11;2.13;;;2.10;;
10489;SDS011;35569;48.402;10.670;2022-08-11T00:20:08;1.93;;;1.80;;
10489;SDS011;35569;48.402;10.670;2022-08-11T00:20:47;1.80;;;1.80;;
10489;SDS011;35569;48.402;10.670;2022-08-11T00:21:24;1.63;;;1.63;;
10489;SDS011;35569;48.402;10.670;2022-08-11T00:22:19;1.50;;;1.40;;
10489;SDS011;35569;48.402;10.670;2022-08-11T00:22:58;2.40;;;1.70;;
10489;SDS011;35569;48.402;10.670;2022-08-11T00:23:32;1.73;;;1.70;;
10489;SDS011;35569;48.402;10.670;2022-08-11T00:24:05;1.60;;;1.50;;
10489;SDS011;35569;48.402;10.670;2022-08-11T00:24:41;1.77;;;1.77;;
10489;SDS011;35569;48.402;10.670;2022-08-11T00:25:25;1.87;;;1.77;;
10489;SDS011;35569;48.402;10.670;2022-08-11T00:26:04;1.63;;;1.63;;
10489;SDS011;35569;48.402;10.670;2022-08-11T00:26:41;1.67;;;1.57;;
10489;SDS011;35569;48.402;10.670;2022-08-11T00:27:29;1.83;;;1.70;;
10489;SDS011;35569;48.402;10.670;2022-08-11T00:28:03;1.80;;;1.70;;
10489;SDS011;35569;48.402;10.670;2022-08-11T00:28:38;2.00;;;1.90;;
10489;SDS011;35569;48.402;10.670;2022-08-11T00:29:12;2.23;;;1.70;;
10489;SDS011;35569;48.402;10.670;2022-08-11T00:29:51;1.90;;;1.80;;
10489;SDS011;35569;48.402;10.670;2022-08-11T00:30:26;1.83;;;1.83;;
10489;SDS011;35569;48.402;10.670;2022-08-11T00:31:10;4.37;;;2.30;;
10489;SDS011;35569;48.402;10.670;2022-08-11T00:31:54;1.77;;;1.70;;
10489;SDS011;35569;48.402;10.670;2022-08-11T00:32:28;2.97;;;2.10;;
10489;SDS011;35569;48.402;10.670;2022-08-11T00:33:01;1.97;;;1.87;;
10489;SDS011;35569;48.402;10.670;2022-08-11T00:33:37;2.70;;;1.70;;
10489;SDS011;35569;48.402;10.670;2022-08-11T00:34:16;2.03;;;1.93;;
10489;SDS011;35569;48.402;10.670;2022-08-11T00:34:50;1.80;;;1.70;;
10489;SDS011;35569;48.402;10.670;2022-08-11T00:35:45;2.23;;;2.03;;
10489;SDS011;35569;48.402;10.670;2022-08-11T00:36:29;1.60;;;1.60;;
10489;SDS011;35569;48.402;10.670;2022-08-11T00:37:16;2.57;;;1.97;;
10489;SDS011;35569;48.402;10.670;2022-08-11T00:37:50;1.87;;;1.77;;
10489;SDS011;35569;48.402;10.670;2022-08-11T00:38:27;1.87;;;1.77;;
10489;SDS011;35569;48.402;10.670;2022-08-11T00:39:04;1.70;;;1.60;;
10489;SDS011;35569;48.402;10.670;2022-08-11T00:39:41;3.60;;;1.63;;
10489;SDS011;35569;48.402;10.670;2022-08-11T00:40:17;2.20;;;2.10;;
10489;SDS011;35569;48.402;10.670;2022-08-11T00:40:57;1.70;;;1.60;;
10489;SDS011;35569;48.402;10.670;2022-08-11T00:41:35;1.70;;;1.60;;
10489;SDS011;35569;48.402;10.670;2022-08-11T00:42:17;5.23;;;2.20;;
10489;SDS011;35569;48.402;10.670;2022-08-11T00:42:59;2.17;;;2.07;;
10489;SDS011;35569;48.402;10.670;2022-08-11T00:43:46;1.70;;;1.60;;
10489;SDS011;35569;48.402;10.670;2022-08-11T00:44:30;1.60;;;1.60;;
10489;SDS011;35569;48.402;10.670;2022-08-11T00:45:08;2.93;;;1.87;;
10489;SDS011;35569;48.402;10.670;2022-08-11T00:45:43;1.60;;;1.60;;
10489;SDS011;35569;48.402;10.670;2022-08-11T00:46:30;1.77;;;1.67;;
10489;SDS011;35569;48.402;10.670;2022-08-11T00:47:12;2.30;;;2.10;;
10489;SDS011;35569;48.402;10.670;2022-08-11T00:47:52;2.30;;;2.10;;
10489;SDS011;35569;48.402;10.670;2022-08-11T00:48:32;1.90;;;1.80;;
10489;SDS011;35569;48.402;10.670;2022-08-11T00:49:10;1.97;;;1.87;;
10489;SDS011;35569;48.402;10.670;2022-08-11T00:50:01;1.43;;;1.43;;
10489;SDS011;35569;48.402;10.670;2022-08-11T00:50:50;1.60;;;1.57;;
10489;SDS011;35569;48.402;10.670;2022-08-11T00:51:42;1.90;;;1.80;;
10489;SDS011;35569;48.402;10.670;2022-08-11T00:52:43;2.03;;;1.93;;
10489;SDS011;35569;48.402;10.670;2022-08-11T00:53:29;2.13;;;2.03;;
10489;SDS011;35569;48.402;10.670;2022-08-11T00:54:07;1.90;;;1.80;;
10489;SDS011;35569;48.402;10.670;2022-08-11T00:55:14;1.63;;;1.63;;
10489;SDS011;35569;48.402;10.670;2022-08-11T00:57:35;2.00;;;1.90;;
10489;SDS011;35569;48.402;10.670;2022-08-11T00:58:42;2.17;;;1.97;;
10489;SDS011;35569;48.402;10.670;2022-08-11T00:59:44;1.60;;;1.60;;
10489;SDS011;35569;48.402;10.670;2022-08-11T01:00:40;1.57;;;1.47;;
10489;SDS011;35569;48.402;10.670;2022-08-11T01:01:26;1.63;;;1.63;;
10489;SDS011;35569;48.402;10.670;2022-08-11T01:02:10;1.93;;;1.83;;
10489;SDS011;35569;48.402;10.670;2022-08-11T01:02:57;1.53;;;1.53;;
10489;SDS011;35569;48.402;10.670;2022-08-11T01:03:51;2.07;;;1.97;;
10489;SDS011;35569;48.402;10.670;2022-08-11T01:06:05;1.73;;;1.63;;
10489;SDS011;35569;48.402;10.670;2022-08-11T01:07:07;1.97;;;1.97;;
10489;SDS011;35569;48.402;10.670;2022-08-11T01:08:29;2.10;;;2.00;;
10489;SDS011;35569;48.402;10.670;2022-08-11T01:09:39;2.03;;;1.93;;
10489;SDS011;35569;48.402;10.670;2022-08-11T01:10:27;1.90;;;1.80;;
10489;SDS011;35569;48.402;10.670;2022-08-11T01:11:20;2.00;;;1.90;;
10489;SDS011;35569;48.402;10.670;2022-08-11T01:12:12;3.03;;;1.77;;
10489;SDS011;35569;48.402;10.670;2022-08-11T01:12:59;1.90;;;1.80;;
10489;SDS011;35569;48.402;10.670;2022-08-11T01:16:12;1.70;;;1.60;;
10489;SDS011;35569;48.402;10.670;2022-08-11T01:17:12;2.00;;;1.80;;
10489;SDS011;35569;48.402;10.670;2022-08-11T01:22:22;1.80;;;1.80;;
10489;SDS011;35569;48.402;10.670;2022-08-11T01:25:52;1.80;;;1.70;;
10489;SDS011;35569;48.402;10.670;2022-08-11T01:28:06;1.80;;;1.80;;
10489;SDS011;35569;48.402;10.670;2022-08-11T01:30:26;1.87;;;1.80;;
10489;SDS011;35569;48.402;10.670;2022-08-11T01:31:22;1.57;;;1.57;;
10489;SDS011;35569;48.402;10.670;2022-08-11T01:32:21;2.00;;;1.90;;
10489;SDS011;35569;48.402;10.670;2022-08-11T01:35:36;1.53;;;1.53;;
10489;SDS011;35569;48.402;10.670;2022-08-11T01:39:55;2.30;;;2.20;;
10489;SDS011;35569;48.402;10.670;2022-08-11T01:40:58;1.80;;;1.80;;
10489;SDS011;35569;48.402;10.670;2022-08-11T01:42:34;1.80;;;1.70;;
10489;SDS011;35569;48.402;10.670;2022-08-11T01:46:09;2.30;;;2.20;;
10489;SDS011;35569;48.402;10.670;2022-08-11T01:46:48;2.00;;;1.90;;
10489;SDS011;35569;48.402;10.670;2022-08-11T01:47:25;1.63;;;1.63;;
10489;SDS011;35569;48.402;10.670;2022-08-11T01:48:28;1.73;;;1.63;;
10489;SDS011;35569;48.402;10.670;2022-08-11T01:49:11;2.27;;;2.17;;
10489;SDS011;35569;48.402;10.670;2022-08-11T01:50:12;2.20;;;1.80;;
10489;SDS011;35569;48.402;10.670;2022-08-11T01:50:56;2.13;;;2.03;;
10489;SDS011;35569;48.402;10.670;2022-08-11T01:51:37;3.90;;;1.90;;
10489;SDS011;35569;48.402;10.670;2022-08-11T01:52:24;2.30;;;2.17;;
10489;SDS011;35569;48.402;10.670;2022-08-11T01:53:08;1.90;;;1.80;;
10489;SDS011;35569;48.402;10.670;2022-08-11T01:53:50;1.87;;;1.77;;
10489;SDS011;35569;48.402;10.670;2022-08-11T01:54:30;1.70;;;1.70;;
10489;SDS011;35569;48.402;10.670;2022-08-11T01:55:07;1.87;;;1.87;;
10489;SDS011;35569;48.402;10.670;2022-08-11T01:55:48;3.07;;;2.00;;
10489;SDS011;35569;48.402;10.670;2022-08-11T01:56:32;2.00;;;1.90;;
10489;SDS011;35569;48.402;10.670;2022-08-11T01:57:15;1.70;;;1.70;;
10489;SDS011;35569;48.402;10.670;2022-08-11T01:58:04;2.20;;;1.90;;
10489;SDS011;35569;48.402;10.670;2022-08-11T01:58:47;2.00;;;1.90;;
10489;SDS011;35569;48.402;10.670;2022-08-11T01:59:25;2.10;;;2.10;;
10489;SDS011;35569;48.402;10.670;2022-08-11T02:00:04;1.57;;;1.57;;
10489;SDS011;35569;48.402;10.670;2022-08-11T02:00:47;2.23;;;2.13;;
10489;SDS011;35569;48.402;10.670;2022-08-11T02:01:31;1.83;;;1.83;;
10489;SDS011;35569;48.402;10.670;2022-08-11T02:03:18;2.07;;;1.97;;
10489;SDS011;35569;48.402;10.670;2022-08-11T02:03:57;1.80;;;1.70;;
10489;SDS011;35569;48.402;10.670;2022-08-11T02:04:35;1.77;;;1.70;;
10489;SDS011;35569;48.402;10.670;2022-08-11T02:05:32;1.77;;;1.67;;
10489;SDS011;35569;48.402;10.670;2022-08-11T02:06:21;2.10;;;2.00;;
10489;SDS011;35569;48.402;10.670;2022-08-11T02:07:16;2.10;;;2.00;;
10489;SDS011;35569;48.402;10.670;2022-08-11T02:07:58;1.90;;;1.90;;
10489;SDS011;35569;48.402;10.670;2022-08-11T02:08:39;2.23;;;2.13;;
10489;SDS011;35569;48.402;10.670;2022-08-11T02:10:31;2.70;;;2.00;;
10489;SDS011;35569;48.402;10.670;2022-08-11T02:11:23;1.80;;;1.80;;
10489;SDS011;35569;48.402;10.670;2022-08-11T02:12:09;2.50;;;2.10;;
10489;SDS011;35569;48.402;10.670;2022-08-11T02:12:47;1.37;;;1.37;;
10489;SDS011;35569;48.402;10.670;2022-08-11T02:13:24;1.80;;;1.80;;
10489;SDS011;35569;48.402;10.670;2022-08-11T02:14:16;2.13;;;2.03;;
10489;SDS011;35569;48.402;10.670;2022-08-11T02:14:58;2.20;;;2.10;;
10489;SDS011;35569;48.402;10.670;2022-08-11T02:15:37;2.00;;;1.90;;
10489;SDS011;35569;48.402;10.670;2022-08-11T02:16:16;2.07;;;1.97;;
10489;SDS011;35569;48.402;10.670;2022-08-11T02:16:58;2.63;;;2.50;;
10489;SDS011;35569;48.402;10.670;2022-08-11T02:17:48;1.97;;;1.87;;
10489;SDS011;35569;48.402;10.670;2022-08-11T02:18:26;2.00;;;1.90;;
10489;SDS011;35569;48.402;10.670;2022-08-11T02:19:30;2.03;;;2.00;;
10489;SDS011;35569;48.402;10.670;2022-08-11T02:20:24;1.90;;;1.90;;
10489;SDS011;35569;48.402;10.670;2022-08-11T02:21:13;2.07;;;1.87;;
10489;SDS011;35569;48.402;10.670;2022-08-11T02:22:07;2.27;;;2.07;;
10489;SDS011;35569;48.402;10.670;2022-08-11T02:23:00;1.70;;;1.70;;
10489;SDS011;35569;48.402;10.670;2022-08-11T02:24:10;2.00;;;1.90;;
10489;SDS011;35569;48.402;10.670;2022-08-11T02:24:52;2.23;;;2.03;;
10489;SDS011;35569;48.402;10.670;2022-08-11T02:25:30;1.70;;;1.60;;
10489;SDS011;35569;48.402;10.670;2022-08-11T02:26:09;2.03;;;2.03;;
10489;SDS011;35569;48.402;10.670;2022-08-11T02:26:49;3.07;;;1.97;;
10489;SDS011;35569;48.402;10.670;2022-08-11T02:27:35;1.53;;;1.53;;
10489;SDS011;35569;48.402;10.670;2022-08-11T02:28:20;1.70;;;1.70;;
10489;SDS011;35569;48.402;10.670;2022-08-11T02:29:02;1.90;;;1.80;;
10489;SDS011;35569;48.402;10.670;2022-08-11T02:29:45;1.90;;;1.80;;
10489;SDS011;35569;48.402;10.670;2022-08-11T02:30:23;1.83;;;1.83;;
10489;SDS011;35569;48.402;10.670;2022-08-11T02:31:01;2.03;;;1.97;;
10489;SDS011;35569;48.402;10.670;2022-08-11T02:32:14;2.03;;;2.03;;
10489;SDS011;35569;48.402;10.670;2022-08-11T02:33:11;1.83;;;1.83;;
10489;SDS011;35569;48.402;10.670;2022-08-11T02:33:56;2.00;;;2.00;;
10489;SDS011;35569;48.402;10.670;2022-08-11T02:34:37;1.80;;;1.80;;
10489;SDS011;35569;48.402;10.670;2022-08-11T02:35:34;2.30;;;2.20;;
10489;SDS011;35569;48.402;10.670;2022-08-11T02:36:16;2.20;;;1.60;;
10489;SDS011;35569;48.402;10.670;2022-08-11T02:37:00;2.10;;;2.00;;
10489;SDS011;35569;48.402;10.670;2022-08-11T02:38:03;1.87;;;1.87;;
10489;SDS011;35569;48.402;10.670;2022-08-11T02:38:40;2.00;;;2.00;;
10489;SDS011;35569;48.402;10.670;2022-08-11T02:39:19;1.90;;;1.80;;
10489;SDS011;35569;48.402;10.670;2022-08-11T02:40:01;1.63;;;1.63;;
10489;SDS011;35569;48.402;10.670;2022-08-11T02:40:42;1.70;;;1.60;;
10489;SDS011;35569;48.402;10.670;2022-08-11T02:41:22;2.00;;;1.90;;
10489;SDS011;35569;48.402;10.670;2022-08-11T02:42:15;2.20;;;2.10;;
10489;SDS011;35569;48.402;10.670;2022-08-11T02:43:16;2.37;;;2.27;;
10489;SDS011;35569;48.402;10.670;2022-08-11T02:44:02;2.17;;;2.07;;
10489;SDS011;35569;48.402;10.670;2022-08-11T02:44:43;2.10;;;2.00;;
10489;SDS011;35569;48.402;10.670;2022-08-11T02:46:20;1.80;;;1.70;;
10489;SDS011;35569;48.402;10.670;2022-08-11T02:46:57;2.07;;;2.00;;
10489;SDS011;35569;48.402;10.670;2022-08-11T02:47:38;2.00;;;1.90;;
10489;SDS011;35569;48.402;10.670;2022-08-11T02:48:39;2.00;;;2.00;;
10489;SDS011;35569;48.402;10.670;2022-08-11T02:49:41;2.07;;;1.97;;
10489;SDS011;35569;48.402;10.670;2022-08-11T02:50:39;2.30;;;2.20;;
10489;SDS011;35569;48.402;10.670;2022-08-11T02:51:22;2.13;;;1.83;;
10489;SDS011;35569;48.402;10.670;2022-08-11T02:52:02;2.20;;;2.10;;
10489;SDS011;35569;48.402;10.670;2022-08-11T02:52:42;2.00;;;1.90;;
10489;SDS011;35569;48.402;10.670;2022-08-11T02:53:22;2.30;;;2.20;;
10489;SDS011;35569;48.402;10.670;2022-08-11T02:54:00;2.20;;;2.10;;
10489;SDS011;35569;48.402;10.670;2022-08-11T02:54:41;2.00;;;2.00;;
10489;SDS011;35569;48.402;10.670;2022-08-11T02:55:17;1.90;;;1.80;;
10489;SDS011;35569;48.402;10.670;2022-08-11T02:56:15;1.70;;;1.60;;
10489;SDS011;35569;48.402;10.670;2022-08-11T02:56:56;2.20;;;2.10;;
10489;SDS011;35569;48.402;10.670;2022-08-11T02:57:34;2.13;;;2.03;;
10489;SDS011;35569;48.402;10.670;2022-08-11T02:58:09;1.97;;;1.97;;
10489;SDS011;35569;48.402;10.670;2022-08-11T02:58:51;1.87;;;1.80;;
10489;SDS011;35569;48.402;10.670;2022-08-11T02:59:46;2.43;;;2.30;;
10489;SDS011;35569;48.402;10.670;2022-08-11T03:00:22;1.97;;;1.93;;
10489;SDS011;35569;48.402;10.670;2022-08-11T03:01:02;1.90;;;1.80;;
10489;SDS011;35569;48.402;10.670;2022-08-11T03:01:43;2.10;;;2.00;;
10489;SDS011;35569;48.402;10.670;2022-08-11T03:02:23;1.73;;;1.73;;
10489;SDS011;35569;48.402;10.670;2022-08-11T03:03:17;2.10;;;2.00;;
10489;SDS011;35569;48.402;10.670;2022-08-11T03:03:56;1.93;;;1.90;;
10489;SDS011;35569;48.402;10.670;2022-08-11T03:04:44;2.10;;;2.00;;
10489;SDS011;35569;48.402;10.670;2022-08-11T03:05:43;2.27;;;2.20;;
10489;SDS011;35569;48.402;10.670;2022-08-11T03:06:28;3.93;;;1.97;;
10489;SDS011;35569;48.402;10.670;2022-08-11T03:07:07;4.10;;;2.57;;
10489;SDS011;35569;48.402;10.670;2022-08-11T03:08:19;1.73;;;1.63;;
10489;SDS011;35569;48.402;10.670;2022-08-11T03:09:04;2.23;;;2.10;;
10489;SDS011;35569;48.402;10.670;2022-08-11T03:09:43;2.30;;;2.17;;
10489;SDS011;35569;48.402;10.670;2022-08-11T03:10:22;1.93;;;1.83;;
10489;SDS011;35569;48.402;10.670;2022-08-11T03:11:04;2.10;;;2.00;;
10489;SDS011;35569;48.402;10.670;2022-08-11T03:12:08;1.47;;;1.47;;
10489;SDS011;35569;48.402;10.670;2022-08-11T03:13:00;2.20;;;2.10;;
10489;SDS011;35569;48.402;10.670;2022-08-11T03:13:58;2.00;;;1.90;;
10489;SDS011;35569;48.402;10.670;2022-08-11T03:14:53;2.20;;;2.20;;
10489;SDS011;35569;48.402;10.670;2022-08-11T03:15:45;2.10;;;2.10;;
10489;SDS011;35569;48.402;10.670;2022-08-11T03:16:36;2.13;;;2.00;;
10489;SDS011;35569;48.402;10.670;2022-08-11T03:17:24;2.10;;;2.10;;
10489;SDS011;35569;48.402;10.670;2022-08-11T03:18:02;1.90;;;1.90;;
10489;SDS011;35569;48.402;10.670;2022-08-11T03:18:47;2.40;;;2.30;;
10489;SDS011;35569;48.402;10.670;2022-08-11T03:19:29;2.30;;;2.20;;
10489;SDS011;35569;48.402;10.670;2022-08-11T03:20:14;3.67;;;1.80;;
10489;SDS011;35569;48.402;10.670;2022-08-11T03:21:09;1.83;;;1.73;;
10489;SDS011;35569;48.402;10.670;2022-08-11T03:21:47;3.20;;;1.93;;
10489;SDS011;35569;48.402;10.670;2022-08-11T03:22:35;2.33;;;2.23;;
10489;SDS011;35569;48.402;10.670;2022-08-11T03:23:16;1.80;;;1.80;;
10489;SDS011;35569;48.402;10.670;2022-08-11T03:23:57;1.93;;;1.90;;
10489;SDS011;35569;48.402;10.670;2022-08-11T03:24:48;1.70;;;1.70;;
10489;SDS011;35569;48.402;10.670;2022-08-11T03:25:29;2.27;;;2.07;;
10489;SDS011;35569;48.402;10.670;2022-08-11T03:26:07;1.80;;;1.70;;
10489;SDS011;35569;48.402;10.670;2022-08-11T03:26:52;2.37;;;2.20;;
10489;SDS011;35569;48.402;10.670;2022-08-11T03:27:33;2.30;;;2.20;;
10489;SDS011;35569;48.402;10.670;2022-08-11T03:28:20;2.30;;;2.20;;
10489;SDS011;35569;48.402;10.670;2022-08-11T03:29:07;2.10;;;2.00;;
10489;SDS011;35569;48.402;10.670;2022-08-11T03:30:00;2.20;;;2.10;;
10489;SDS011;35569;48.402;10.670;2022-08-11T03:30:40;1.80;;;1.80;;
10489;SDS011;35569;48.402;10.670;2022-08-11T03:31:19;2.10;;;2.00;;
10489;SDS011;35569;48.402;10.670;2022-08-11T03:31:55;2.00;;;2.00;;
10489;SDS011;35569;48.402;10.670;2022-08-11T03:32:40;1.97;;;1.97;;
10489;SDS011;35569;48.402;10.670;2022-08-11T03:33:43;2.33;;;2.13;;
10489;SDS011;35569;48.402;10.670;2022-08-11T03:34:38;1.90;;;1.90;;
10489;SDS011;35569;48.402;10.670;2022-08-11T03:35:10;2.00;;;1.90;;
10489;SDS011;35569;48.402;10.670;2022-08-11T03:35:55;2.10;;;2.00;;
10489;SDS011;35569;48.402;10.670;2022-08-11T03:38:11;2.03;;;1.93;;
10489;SDS011;35569;48.402;10.670;2022-08-11T03:38:48;1.97;;;1.87;;
10489;SDS011;35569;48.402;10.670;2022-08-11T03:39:32;1.60;;;1.60;;
10489;SDS011;35569;48.402;10.670;2022-08-11T03:40:33;2.20;;;2.20;;
10489;SDS011;35569;48.402;10.670;2022-08-11T03:41:30;2.00;;;1.90;;
10489;SDS011;35569;48.402;10.670;2022-08-11T03:42:40;2.40;;;2.30;;
10489;SDS011;35569;48.402;10.670;2022-08-11T03:43:17;1.90;;;1.80;;
10489;SDS011;35569;48.402;10.670;2022-08-11T03:44:02;2.60;;;2.30;;
10489;SDS011;35569;48.402;10.670;2022-08-11T03:44:42;2.23;;;2.13;;
10489;SDS011;35569;48.402;10.670;2022-08-11T03:45:24;2.40;;;2.30;;
10489;SDS011;35569;48.402;10.670;2022-08-11T03:46:05;2.07;;;1.97;;
10489;SDS011;35569;48.402;10.670;2022-08-11T03:46:46;1.80;;;1.80;;
10489;SDS011;35569;48.402;10.670;2022-08-11T03:47:43;2.40;;;1.43;;
10489;SDS011;35569;48.402;10.670;2022-08-11T03:48:37;1.90;;;1.90;;
10489;SDS011;35569;48.402;10.670;2022-08-11T03:49:21;1.77;;;1.73;;
10489;SDS011;35569;48.402;10.670;2022-08-11T03:50:03;1.70;;;1.70;;
10489;SDS011;35569;48.402;10.670;2022-08-11T03:50:53;2.03;;;1.93;;
10489;SDS011;35569;48.402;10.670;2022-08-11T03:51:35;2.00;;;1.90;;
10489;SDS011;35569;48.402;10.670;2022-08-11T03:52:26;2.10;;;2.10;;
10489;SDS011;35569;48.402;10.670;2022-08-11T03:53:09;4.00;;;2.00;;
10489;SDS011;35569;48.402;10.670;2022-08-11T03:53:55;2.37;;;2.27;;
10489;SDS011;35569;48.402;10.670;2022-08-11T03:54:40;2.20;;;2.20;;
10489;SDS011;35569;48.402;10.670;2022-08-11T03:55:26;2.20;;;2.10;;
10489;SDS011;35569;48.402;10.670;2022-08-11T03:57:08;2.30;;;2.20;;
10489;SDS011;35569;48.402;10.670;2022-08-11T03:59:15;2.23;;;2.13;;
10489;SDS011;35569;48.402;10.670;2022-08-11T04:01:07;2.70;;;2.60;;
10489;SDS011;35569;48.402;10.670;2022-08-11T04:02:08;1.93;;;1.93;;
10489;SDS011;35569;48.402;10.670;2022-08-11T04:03:00;2.40;;;2.30;;
10489;SDS011;35569;48.402;10.670;2022-08-11T04:03:57;2.30;;;2.20;;
10489;SDS011;35569;48.402;10.670;2022-08-11T04:04:52;2.13;;;2.03;;
10489;SDS011;35569;48.402;10.670;2022-08-11T04:05:45;2.47;;;2.33;;
10489;SDS011;35569;48.402;10.670;2022-08-11T04:06:38;2.90;;;2.80;;
10489;SDS011;35569;48.402;10.670;2022-08-11T04:09:46;4.93;;;2.90;;
10489;SDS011;35569;48.402;10.670;2022-08-11T04:10:54;2.47;;;2.33;;
10489;SDS011;35569;48.402;10.670;2022-08-11T04:14:04;2.87;;;2.67;;
10489;SDS011;35569;48.402;10.670;2022-08-11T04:17:07;2.07;;;2.07;;
10489;SDS011;35569;48.402;10.670;2022-08-11T04:19:18;2.70;;;2.60;;
10489;SDS011;35569;48.402;10.670;2022-08-11T04:20:22;2.97;;;2.53;;
10489;SDS011;35569;48.402;10.670;2022-08-11T04:21:19;2.50;;;2.40;;
10489;SDS011;35569;48.402;10.670;2022-08-11T04:23:02;2.03;;;2.03;;
10489;SDS011;35569;48.402;10.670;2022-08-11T04:24:14;2.60;;;2.50;;
10489;SDS011;35569;48.402;10.670;2022-08-11T04:26:36;2.53;;;2.40;;
10489;SDS011;35569;48.402;10.670;2022-08-11T04:27:26;2.17;;;2.17;;
10489;SDS011;35569;48.402;10.670;2022-08-11T04:29:24;2.63;;;2.53;;
10489;SDS011;35569;48.402;10.670;2022-08-11T04:30:31;3.20;;;3.10;;
10489;SDS011;35569;48.402;10.670;2022-08-11T04:31:32;3.07;;;2.87;;
10489;SDS011;35569;48.402;10.670;2022-08-11T04:32:30;2.37;;;2.27;;
10489;SDS011;35569;48.402;10.670;2022-08-11T04:33:23;3.00;;;2.30;;
10489;SDS011;35569;48.402;10.670;2022-08-11T04:35:18;2.70;;;2.60;;
10489;SDS011;35569;48.402;10.670;2022-08-11T04:36:09;2.10;;;2.00;;
10489;SDS011;35569;48.402;10.670;2022-08-11T04:37:17;2.77;;;2.57;;
10489;SDS011;35569;48.402;10.670;2022-08-11T04:38:30;3.63;;;2.57;;
10489;SDS011;35569;48.402;10.670;2022-08-11T04:39:14;2.33;;;2.23;;
10489;SDS011;35569;48.402;10.670;2022-08-11T04:39:59;2.47;;;2.37;;
10489;SDS011;35569;48.402;10.670;2022-08-11T04:42:11;2.43;;;2.33;;
10489;SDS011;35569;48.402;10.670;2022-08-11T04:45:34;2.60;;;2.50;;
10489;SDS011;35569;48.402;10.670;2022-08-11T04:46:25;2.67;;;2.37;;
10489;SDS011;35569;48.402;10.670;2022-08-11T04:48:37;5.20;;;2.63;;
10489;SDS011;35569;48.402;10.670;2022-08-11T04:49:48;3.10;;;2.80;;
10489;SDS011;35569;48.402;10.670;2022-08-11T04:53:26;2.50;;;2.40;;
10489;SDS011;35569;48.402;10.670;2022-08-11T04:54:25;2.40;;;2.20;;
10489;SDS011;35569;48.402;10.670;2022-08-11T04:55:27;2.50;;;2.40;;
10489;SDS011;35569;48.402;10.670;2022-08-11T04:56:31;2.30;;;2.20;;
10489;SDS011;35569;48.402;10.670;2022-08-11T04:57:21;2.50;;;2.40;;
10489;SDS011;35569;48.402;10.670;2022-08-11T04:58:19;3.23;;;2.60;;
10489;SDS011;35569;48.402;10.670;2022-08-11T04:59:19;2.77;;;2.67;;
10489;SDS011;35569;48.402;10.670;2022-08-11T05:00:48;2.43;;;2.33;;
10489;SDS011;35569;48.402;10.670;2022-08-11T05:01:39;2.20;;;2.10;;
10489;SDS011;35569;48.402;10.670;2022-08-11T05:02:43;2.50;;;2.40;;
10489;SDS011;35569;48.402;10.670;2022-08-11T05:03:42;2.83;;;2.70;;
10489;SDS011;35569;48.402;10.670;2022-08-11T05:05:49;2.70;;;2.60;;
10489;SDS011;35569;48.402;10.670;2022-08-11T05:07:35;2.60;;;2.40;;
10489;SDS011;35569;48.402;10.670;2022-08-11T05:08:40;2.50;;;2.40;;
10489;SDS011;35569;48.402;10.670;2022-08-11T05:10:21;2.33;;;2.13;;
10489;SDS011;35569;48.402;10.670;2022-08-11T05:11:06;2.83;;;2.73;;
10489;SDS011;35569;48.402;10.670;2022-08-11T05:13:00;2.50;;;2.30;;
10489;SDS011;35569;48.402;10.670;2022-08-11T05:13:49;2.70;;;2.50;;
10489;SDS011;35569;48.402;10.670;2022-08-11T05:14:38;3.10;;;2.67;;
10489;SDS011;35569;48.402;10.670;2022-08-11T05:15:29;3.30;;;2.40;;
10489;SDS011;35569;48.402;10.670;2022-08-11T05:16:23;2.90;;;2.57;;
10489;SDS011;35569;48.402;10.670;2022-08-11T05:17:14;2.57;;;2.47;;
10489;SDS011;35569;48.402;10.670;2022-08-11T05:18:08;2.33;;;2.30;;
10489;SDS011;35569;48.402;10.670;2022-08-11T05:18:59;2.47;;;2.33;;
10489;SDS011;35569;48.402;10.670;2022-08-11T05:19:47;2.33;;;2.23;;
10489;SDS011;35569;48.402;10.670;2022-08-11T05:20:37;2.80;;;2.50;;
10489;SDS011;35569;48.402;10.670;2022-08-11T05:21:29;2.67;;;2.50;;
10489;SDS011;35569;48.402;10.670;2022-08-11T05:22:18;3.83;;;2.50;;
10489;SDS011;35569;48.402;10.670;2022-08-11T05:23:06;2.97;;;2.20;;
10489;SDS011;35569;48.402;10.670;2022-08-11T05:23:55;2.63;;;2.43;;
10489;SDS011;35569;48.402;10.670;2022-08-11T05:24:44;2.50;;;2.30;;
10489;SDS011;35569;48.402;10.670;2022-08-11T05:25:33;2.27;;;2.17;;
10489;SDS011;35569;48.402;10.670;2022-08-11T05:26:43;2.57;;;2.37;;
10489;SDS011;35569;48.402;10.670;2022-08-11T05:27:35;2.97;;;2.77;;
10489;SDS011;35569;48.402;10.670;2022-08-11T05:28:27;2.77;;;2.67;;
10489;SDS011;35569;48.402;10.670;2022-08-11T05:29:25;2.70;;;2.60;;
10489;SDS011;35569;48.402;10.670;2022-08-11T05:30:14;3.23;;;2.93;;
10489;SDS011;35569;48.402;10.670;2022-08-11T05:31:06;2.50;;;2.40;;
10489;SDS011;35569;48.402;10.670;2022-08-11T05:31:58;2.93;;;2.83;;
10489;SDS011;35569;48.402;10.670;2022-08-11T05:32:52;3.13;;;2.97;;
10489;SDS011;35569;48.402;10.670;2022-08-11T05:33:44;2.93;;;2.30;;
10489;SDS011;35569;48.402;10.670;2022-08-11T05:34:40;2.60;;;2.50;;
10489;SDS011;35569;48.402;10.670;2022-08-11T05:35:33;2.40;;;2.30;;
10489;SDS011;35569;48.402;10.670;2022-08-11T05:36:33;3.70;;;2.10;;
10489;SDS011;35569;48.402;10.670;2022-08-11T05:37:16;5.60;;;2.43;;